createdAt,value
2017-09-01T00:00:34.827Z,0
2017-09-01T00:01:34.502Z,0
2017-09-01T00:02:34.355Z,0
2017-09-01T00:03:36.972Z,0
2017-09-01T00:04:34.579Z,0
2017-09-01T00:05:34.475Z,0
2017-09-01T00:06:34.784Z,0
2017-09-01T00:07:34.579Z,0
2017-09-01T00:08:34.224Z,0
2017-09-01T00:09:34.567Z,0
2017-09-01T00:10:34.327Z,0
2017-09-01T00:11:34.966Z,0
2017-09-01T00:12:34.712Z,0
2017-09-01T00:13:34.417Z,0
2017-09-01T00:14:34.169Z,0
2017-09-01T00:15:34.491Z,0
2017-09-01T00:16:34.819Z,0
2017-09-01T00:17:35.480Z,0
2017-09-01T00:18:34.876Z,0
2017-09-01T00:19:35.573Z,0
2017-09-01T00:20:35.866Z,0
2017-09-01T00:21:35.915Z,0
2017-09-01T00:22:35.926Z,0
2017-09-01T00:23:35.954Z,0
2017-09-01T00:24:35.978Z,0
2017-09-01T00:25:36.063Z,0
2017-09-01T00:26:35.775Z,0
2017-09-01T00:27:35.540Z,0
2017-09-01T00:28:35.863Z,0
2017-09-01T00:29:35.893Z,0
2017-09-01T00:30:35.929Z,0
2017-09-01T00:31:36.651Z,0
2017-09-01T00:32:36.701Z,0
2017-09-01T00:33:36.928Z,0
2017-09-01T00:34:36.049Z,0
2017-09-01T00:35:36.717Z,0
2017-09-01T00:36:36.448Z,0
2017-09-01T00:37:36.532Z,0
2017-09-01T00:38:36.249Z,0
2017-09-01T00:39:36.675Z,0
2017-09-01T00:40:37.062Z,0
2017-09-01T00:41:37.136Z,0
2017-09-01T00:42:37.519Z,0
2017-09-01T00:43:37.490Z,0
2017-09-01T00:44:37.815Z,0
2017-09-01T00:45:38.114Z,0
2017-09-01T00:46:38.458Z,0
2017-09-01T00:47:38.766Z,0
2017-09-01T00:48:38.819Z,0
2017-09-01T00:49:38.514Z,0
2017-09-01T00:50:38.550Z,0
2017-09-01T00:51:38.313Z,0
2017-09-01T00:52:38.918Z,0
2017-09-01T00:53:38.648Z,0
2017-09-01T00:54:38.716Z,0
2017-09-01T00:55:39.052Z,0
2017-09-01T00:56:38.520Z,0
2017-09-01T00:57:39.491Z,0
2017-09-01T00:58:39.549Z,0
2017-09-01T00:59:39.275Z,0
2017-09-01T01:00:39.591Z,0
2017-09-01T01:01:39.695Z,0
2017-09-01T01:02:39.388Z,0
2017-09-01T01:03:45.694Z,0
2017-09-01T01:04:39.813Z,0
2017-09-01T01:05:39.476Z,0
2017-09-01T01:06:39.489Z,0
2017-09-01T01:07:39.962Z,0
2017-09-01T01:08:39.255Z,0
2017-09-01T01:09:39.914Z,0
2017-09-01T01:10:39.980Z,0
2017-09-01T01:11:40.289Z,0
2017-09-01T01:12:39.668Z,0
2017-09-01T01:13:40.050Z,0
2017-09-01T01:14:41.114Z,0
2017-09-01T01:15:40.781Z,0
2017-09-01T01:16:40.830Z,0
2017-09-01T01:17:41.192Z,0
2017-09-01T01:18:40.563Z,0
2017-09-01T01:19:41.293Z,0
2017-09-01T01:20:41.297Z,0
2017-09-01T01:21:41.329Z,0
2017-09-01T01:22:41.717Z,0
2017-09-01T01:23:41.389Z,0
2017-09-01T01:24:41.444Z,0
2017-09-01T01:25:41.452Z,0
2017-09-01T01:26:41.479Z,0
2017-09-01T01:27:42.002Z,0
2017-09-01T01:28:41.529Z,0
2017-09-01T01:29:41.604Z,0
2017-09-01T01:30:41.586Z,0
2017-09-01T01:31:41.939Z,0
2017-09-01T01:32:41.660Z,0
2017-09-01T01:33:42.293Z,0
2017-09-01T01:34:41.689Z,0
2017-09-01T01:35:42.072Z,0
2017-09-01T01:36:42.758Z,0
2017-09-01T01:37:42.428Z,0
2017-09-01T01:38:43.387Z,0
2017-09-01T01:39:43.428Z,0
2017-09-01T01:40:43.441Z,0
2017-09-01T01:41:42.866Z,0
2017-09-01T01:42:43.244Z,0
2017-09-01T01:43:43.881Z,0
2017-09-01T01:44:43.626Z,0
2017-09-01T01:45:43.682Z,0
2017-09-01T01:46:43.995Z,0
2017-09-01T01:47:44.360Z,0
2017-09-01T01:48:44.364Z,0
2017-09-01T01:49:44.092Z,0
2017-09-01T01:50:44.194Z,0
2017-09-01T01:51:43.563Z,0
2017-09-01T01:52:43.907Z,0
2017-09-01T01:53:44.595Z,0
2017-09-01T01:54:44.642Z,0
2017-09-01T01:55:44.298Z,0
2017-09-01T01:56:44.034Z,0
2017-09-01T01:57:44.729Z,0
2017-09-01T01:58:44.154Z,0
2017-09-01T01:59:45.070Z,0
2017-09-01T02:00:45.105Z,0
2017-09-01T02:01:44.839Z,0
2017-09-01T02:02:44.882Z,0
2017-09-01T02:03:54.749Z,0
2017-09-01T02:04:45.284Z,0
2017-09-01T02:05:45.291Z,0
2017-09-01T02:06:45.073Z,0
2017-09-01T02:07:45.079Z,0
2017-09-01T02:08:44.780Z,0
2017-09-01T02:09:45.144Z,0
2017-09-01T02:10:45.189Z,0
2017-09-01T02:11:44.867Z,0
2017-09-01T02:12:45.196Z,0
2017-09-01T02:13:45.333Z,0
2017-09-01T02:14:45.355Z,0
2017-09-01T02:15:46.341Z,0
2017-09-01T02:16:46.366Z,0
2017-09-01T02:17:45.791Z,0
2017-09-01T02:18:46.820Z,0
2017-09-01T02:19:46.801Z,0
2017-09-01T02:20:46.525Z,0
2017-09-01T02:21:46.268Z,0
2017-09-01T02:22:46.924Z,0
2017-09-01T02:23:47.623Z,0
2017-09-01T02:24:47.347Z,0
2017-09-01T02:25:47.655Z,0
2017-09-01T02:26:47.688Z,0
2017-09-01T02:27:47.475Z,0
2017-09-01T02:28:48.432Z,0
2017-09-01T02:29:47.821Z,0
2017-09-01T02:30:48.530Z,0
2017-09-01T02:31:48.265Z,0
2017-09-01T02:32:48.240Z,0
2017-09-01T02:33:48.584Z,0
2017-09-01T02:34:48.095Z,0
2017-09-01T02:35:49.048Z,0
2017-09-01T02:36:49.109Z,0
2017-09-01T02:37:48.809Z,0
2017-09-01T02:38:49.145Z,0
2017-09-01T02:39:49.190Z,0
2017-09-01T02:40:49.187Z,0
2017-09-01T02:41:48.922Z,0
2017-09-01T02:42:49.320Z,0
2017-09-01T02:43:49.632Z,0
2017-09-01T02:44:49.346Z,0
2017-09-01T02:45:49.062Z,0
2017-09-01T02:46:49.385Z,0
2017-09-01T02:47:49.780Z,0
2017-09-01T02:48:49.810Z,0
2017-09-01T02:49:49.503Z,0
2017-09-01T02:50:49.580Z,0
2017-09-01T02:51:49.949Z,0
2017-09-01T02:52:49.619Z,0
2017-09-01T02:53:50.010Z,0
2017-09-01T02:54:49.706Z,0
2017-09-01T02:55:49.718Z,0
2017-09-01T02:56:50.044Z,0
2017-09-01T02:57:50.117Z,0
2017-09-01T02:58:49.819Z,0
2017-09-01T02:59:50.082Z,0
2017-09-01T03:00:50.183Z,0
2017-09-01T03:01:49.592Z,0
2017-09-01T03:02:49.910Z,0
2017-09-01T03:03:58.913Z,0
2017-09-01T03:04:49.990Z,0
2017-09-01T03:05:50.952Z,0
2017-09-01T03:06:50.701Z,0
2017-09-01T03:07:50.500Z,0
2017-09-01T03:08:51.403Z,0
2017-09-01T03:09:51.455Z,0
2017-09-01T03:10:51.486Z,0
2017-09-01T03:11:51.489Z,0
2017-09-01T03:12:51.582Z,0
2017-09-01T03:13:51.556Z,0
2017-09-01T03:14:51.280Z,0
2017-09-01T03:15:51.906Z,0
2017-09-01T03:16:51.914Z,0
2017-09-01T03:17:51.979Z,0
2017-09-01T03:18:51.984Z,0
2017-09-01T03:19:51.712Z,0
2017-09-01T03:20:51.784Z,0
2017-09-01T03:21:52.079Z,0
2017-09-01T03:22:52.114Z,0
2017-09-01T03:23:51.853Z,0
2017-09-01T03:24:52.479Z,0
2017-09-01T03:25:52.507Z,0
2017-09-01T03:26:52.554Z,0
2017-09-01T03:27:51.949Z,0
2017-09-01T03:28:52.659Z,0
2017-09-01T03:29:52.399Z,0
2017-09-01T03:30:52.116Z,0
2017-09-01T03:31:53.102Z,0
2017-09-01T03:32:52.510Z,0
2017-09-01T03:33:52.568Z,0
2017-09-01T03:34:53.198Z,0
2017-09-01T03:35:52.982Z,0
2017-09-01T03:36:53.663Z,0
2017-09-01T03:37:53.679Z,0
2017-09-01T03:38:53.682Z,0
2017-09-01T03:39:54.280Z,0
2017-09-01T03:40:53.752Z,0
2017-09-01T03:41:54.697Z,0
2017-09-01T03:42:54.464Z,0
2017-09-01T03:43:54.477Z,0
2017-09-01T03:44:54.486Z,0
2017-09-01T03:45:54.196Z,0
2017-09-01T03:46:54.551Z,0
2017-09-01T03:47:54.577Z,0
2017-09-01T03:48:54.961Z,0
2017-09-01T03:49:55.250Z,0
2017-09-01T03:50:55.283Z,0
2017-09-01T03:51:55.037Z,0
2017-09-01T03:52:55.376Z,0
2017-09-01T03:53:55.388Z,0
2017-09-01T03:54:56.569Z,0
2017-09-01T03:55:55.165Z,0
2017-09-01T03:56:54.919Z,0
2017-09-01T03:57:55.550Z,0
2017-09-01T03:58:56.203Z,0
2017-09-01T03:59:55.579Z,0
2017-09-01T04:00:56.576Z,0
2017-09-01T04:01:56.278Z,0
2017-09-01T04:02:55.979Z,0
2017-09-01T04:03:56.971Z,0
2017-09-01T04:04:56.993Z,0
2017-09-01T04:05:57.017Z,0
2017-09-01T04:06:57.046Z,0
2017-09-01T04:07:57.117Z,0
2017-09-01T04:08:57.124Z,0
2017-09-01T04:09:56.843Z,0
2017-09-01T04:10:56.880Z,0
2017-09-01T04:11:57.215Z,0
2017-09-01T04:12:57.246Z,0
2017-09-01T04:13:56.959Z,0
2017-09-01T04:14:57.018Z,0
2017-09-01T04:15:57.047Z,0
2017-09-01T04:16:57.741Z,0
2017-09-01T04:17:57.713Z,5
2017-09-01T04:18:57.447Z,5
2017-09-01T04:19:57.786Z,5
2017-09-01T04:20:57.512Z,5
2017-09-01T04:21:57.578Z,5
2017-09-01T04:22:58.228Z,5
2017-09-01T04:23:58.259Z,10
2017-09-01T04:24:57.978Z,10
2017-09-01T04:25:58.612Z,10
2017-09-01T04:26:58.655Z,15
2017-09-01T04:27:58.377Z,15
2017-09-01T04:28:58.714Z,15
2017-09-01T04:29:58.418Z,20
2017-09-01T04:30:58.483Z,20
2017-09-01T04:31:58.811Z,20
2017-09-01T04:32:58.527Z,20
2017-09-01T04:33:58.575Z,25
2017-09-01T04:34:58.583Z,25
2017-09-01T04:35:58.617Z,25
2017-09-01T04:36:58.674Z,30
2017-09-01T04:37:58.054Z,30
2017-09-01T04:38:59.042Z,30
2017-09-01T04:39:58.775Z,35
2017-09-01T04:40:58.809Z,35
2017-09-01T04:41:58.821Z,35
2017-09-01T04:42:59.179Z,35
2017-09-01T04:43:59.485Z,40
2017-09-01T04:44:59.197Z,40
2017-09-01T04:45:58.958Z,40
2017-09-01T04:46:59.605Z,45
2017-09-01T04:47:59.021Z,45
2017-09-01T04:49:00.019Z,45
2017-09-01T04:49:59.718Z,50
2017-09-01T04:51:00.086Z,50
2017-09-01T04:52:00.107Z,55
2017-09-01T04:52:59.819Z,60
2017-09-01T04:53:59.875Z,65
2017-09-01T04:55:00.196Z,70
2017-09-01T04:56:00.227Z,70
2017-09-01T04:57:00.259Z,70
2017-09-01T04:58:00.289Z,75
2017-09-01T04:59:00.351Z,80
2017-09-01T05:00:00.040Z,80
2017-09-01T05:01:00.100Z,85
2017-09-01T05:02:00.461Z,85
2017-09-01T05:03:00.162Z,85
2017-09-01T05:03:59.879Z,80
2017-09-01T05:05:00.881Z,80
2017-09-01T05:06:00.896Z,80
2017-09-01T05:07:00.587Z,80
2017-09-01T05:08:01.440Z,80
2017-09-01T05:09:00.401Z,80
2017-09-01T05:10:00.958Z,85
2017-09-01T05:11:01.026Z,85
2017-09-01T05:12:01.366Z,85
2017-09-01T05:13:01.401Z,85
2017-09-01T05:14:01.445Z,85
2017-09-01T05:15:00.604Z,90
2017-09-01T05:16:01.615Z,90
2017-09-01T05:17:01.629Z,90
2017-09-01T05:18:01.028Z,95
2017-09-01T05:19:01.400Z,95
2017-09-01T05:20:01.430Z,95
2017-09-01T05:21:01.152Z,100
2017-09-01T05:22:02.130Z,100
2017-09-01T05:23:02.169Z,100
2017-09-01T05:24:01.892Z,100
2017-09-01T05:25:02.223Z,100
2017-09-01T05:26:02.261Z,100
2017-09-01T05:27:01.991Z,100
2017-09-01T05:28:02.327Z,100
2017-09-01T05:29:02.364Z,100
2017-09-01T05:30:03.059Z,105
2017-09-01T05:31:03.027Z,110
2017-09-01T05:32:02.768Z,115
2017-09-01T05:33:03.109Z,120
2017-09-01T05:34:02.518Z,130
2017-09-01T05:35:03.511Z,135
2017-09-01T05:36:03.226Z,145
2017-09-01T05:37:03.258Z,150
2017-09-01T05:38:03.305Z,150
2017-09-01T05:39:03.016Z,155
2017-09-01T05:40:03.707Z,165
2017-09-01T05:41:03.418Z,170
2017-09-01T05:42:03.764Z,180
2017-09-01T05:43:02.867Z,190
2017-09-01T05:44:03.569Z,190
2017-09-01T05:45:03.557Z,195
2017-09-01T05:46:03.956Z,195
2017-09-01T05:47:03.957Z,190
2017-09-01T05:48:03.672Z,190
2017-09-01T05:49:04.017Z,195
2017-09-01T05:50:03.753Z,200
2017-09-01T05:51:04.131Z,210
2017-09-01T05:52:03.860Z,225
2017-09-01T05:53:04.212Z,245
2017-09-01T05:54:04.247Z,260
2017-09-01T05:55:04.322Z,275
2017-09-01T05:56:04.320Z,290
2017-09-01T05:57:04.357Z,300
2017-09-01T05:58:04.691Z,300
2017-09-01T05:59:04.746Z,290
2017-09-01T06:00:05.183Z,275
2017-09-01T06:01:04.788Z,270
2017-09-01T06:02:04.814Z,265
2017-09-01T06:03:04.557Z,265
2017-09-01T06:04:04.584Z,275
2017-09-01T06:05:04.717Z,285
2017-09-01T06:06:04.618Z,290
2017-09-01T06:07:04.996Z,285
2017-09-01T06:08:04.402Z,290
2017-09-01T06:09:05.389Z,330
2017-09-01T06:10:05.149Z,380
2017-09-01T06:11:05.479Z,395
2017-09-01T06:12:05.542Z,380
2017-09-01T06:13:05.199Z,390
2017-09-01T06:14:05.603Z,510
2017-09-01T06:15:05.652Z,595
2017-09-01T06:16:05.318Z,670
2017-09-01T06:17:05.668Z,790
2017-09-01T06:18:06.338Z,840
2017-09-01T06:19:06.057Z,725
2017-09-01T06:20:06.648Z,810
2017-09-01T06:21:06.152Z,560
2017-09-01T06:22:06.177Z,655
2017-09-01T06:23:06.213Z,695
2017-09-01T06:24:06.574Z,715
2017-09-01T06:25:06.358Z,500
2017-09-01T06:26:06.974Z,445
2017-09-01T06:27:07.038Z,625
2017-09-01T06:28:06.450Z,595
2017-09-01T06:29:07.438Z,575
2017-09-01T06:30:06.967Z,710
2017-09-01T06:31:07.610Z,765
2017-09-01T06:32:07.336Z,655
2017-09-01T06:33:07.701Z,565
2017-09-01T06:34:07.721Z,525
2017-09-01T06:35:07.514Z,565
2017-09-01T06:36:07.481Z,565
2017-09-01T06:37:07.209Z,560
2017-09-01T06:38:07.568Z,665
2017-09-01T06:39:08.207Z,755
2017-09-01T06:40:07.600Z,640
2017-09-01T06:41:08.285Z,700
2017-09-01T06:42:08.617Z,665
2017-09-01T06:43:08.652Z,795
2017-09-01T06:44:08.719Z,745
2017-09-01T06:45:08.736Z,1015
2017-09-01T06:46:08.777Z,1445
2017-09-01T06:47:08.866Z,765
2017-09-01T06:48:08.559Z,675
2017-09-01T06:49:08.890Z,795
2017-09-01T06:50:08.609Z,920
2017-09-01T06:51:08.611Z,600
2017-09-01T06:52:08.723Z,1280
2017-09-01T06:53:09.329Z,895
2017-09-01T06:54:08.753Z,1145
2017-09-01T06:55:09.191Z,915
2017-09-01T06:56:08.611Z,795
2017-09-01T06:57:09.607Z,530
2017-09-01T06:58:09.288Z,410
2017-09-01T06:59:09.949Z,430
2017-09-01T07:00:10.289Z,655
2017-09-01T07:01:09.373Z,550
2017-09-01T07:02:10.364Z,630
2017-09-01T07:03:10.419Z,710
2017-09-01T07:04:10.446Z,945
2017-09-01T07:05:10.486Z,760
2017-09-01T07:06:10.220Z,1285
2017-09-01T07:07:10.272Z,1045
2017-09-01T07:08:10.656Z,655
2017-09-01T07:09:10.644Z,560
2017-09-01T07:10:10.232Z,600
2017-09-01T07:11:10.426Z,545
2017-09-01T07:12:10.788Z,540
2017-09-01T07:13:11.110Z,640
2017-09-01T07:14:10.842Z,850
2017-09-01T07:15:11.429Z,645
2017-09-01T07:16:10.895Z,750
2017-09-01T07:17:10.958Z,915
2017-09-01T07:18:10.999Z,785
2017-09-01T07:19:11.334Z,990
2017-09-01T07:20:11.486Z,990
2017-09-01T07:21:11.431Z,885
2017-09-01T07:22:10.803Z,1175
2017-09-01T07:23:11.495Z,1155
2017-09-01T07:24:11.505Z,1110
2017-09-01T07:25:12.026Z,945
2017-09-01T07:26:11.599Z,790
2017-09-01T07:27:11.634Z,575
2017-09-01T07:28:11.999Z,670
2017-09-01T07:29:12.027Z,745
2017-09-01T07:30:11.482Z,735
2017-09-01T07:31:11.781Z,595
2017-09-01T07:32:11.821Z,575
2017-09-01T07:33:11.839Z,670
2017-09-01T07:34:11.564Z,570
2017-09-01T07:35:12.332Z,495
2017-09-01T07:36:12.002Z,430
2017-09-01T07:37:12.319Z,405
2017-09-01T07:38:12.316Z,390
2017-09-01T07:39:12.393Z,395
2017-09-01T07:40:12.172Z,385
2017-09-01T07:41:11.832Z,380
2017-09-01T07:42:12.174Z,380
2017-09-01T07:43:11.913Z,390
2017-09-01T07:44:12.600Z,420
2017-09-01T07:45:12.410Z,480
2017-09-01T07:46:12.692Z,585
2017-09-01T07:47:12.728Z,610
2017-09-01T07:48:12.463Z,640
2017-09-01T07:49:12.475Z,630
2017-09-01T07:50:12.806Z,635
2017-09-01T07:51:13.157Z,690
2017-09-01T07:52:13.416Z,815
2017-09-01T07:53:12.928Z,895
2017-09-01T07:54:13.270Z,915
2017-09-01T07:55:13.008Z,685
2017-09-01T07:56:13.617Z,800
2017-09-01T07:57:13.385Z,670
2017-09-01T07:58:13.748Z,590
2017-09-01T07:59:13.148Z,555
2017-09-01T08:00:13.276Z,530
2017-09-01T08:01:14.015Z,525
2017-09-01T08:02:13.688Z,565
2017-09-01T08:03:13.776Z,590
2017-09-01T08:04:14.210Z,620
2017-09-01T08:05:15.309Z,675
2017-09-01T08:06:14.336Z,690
2017-09-01T08:07:14.391Z,700
2017-09-01T08:08:14.592Z,810
2017-09-01T08:09:14.460Z,870
2017-09-01T08:10:14.728Z,960
2017-09-01T08:11:14.858Z,1040
2017-09-01T08:12:14.552Z,1140
2017-09-01T08:13:14.930Z,1335
2017-09-01T08:14:14.978Z,1460
2017-09-01T08:15:14.847Z,1420
2017-09-01T08:16:14.724Z,1340
2017-09-01T08:17:15.094Z,1315
2017-09-01T08:18:15.121Z,1500
2017-09-01T08:19:14.859Z,1475
2017-09-01T08:20:14.956Z,1475
2017-09-01T08:21:14.922Z,1525
2017-09-01T08:22:15.255Z,1380
2017-09-01T08:23:14.993Z,1200
2017-09-01T08:24:15.983Z,1045
2017-09-01T08:25:16.157Z,995
2017-09-01T08:26:15.762Z,1100
2017-09-01T08:27:15.795Z,995
2017-09-01T08:28:15.842Z,975
2017-09-01T08:29:15.900Z,1030
2017-09-01T08:30:16.521Z,1270
2017-09-01T08:31:16.346Z,1300
2017-09-01T08:32:16.039Z,1615
2017-09-01T08:33:16.431Z,1100
2017-09-01T08:34:16.070Z,1000
2017-09-01T08:35:15.899Z,1325
2017-09-01T08:36:16.892Z,805
2017-09-01T08:37:16.941Z,845
2017-09-01T08:38:16.981Z,925
2017-09-01T08:39:16.701Z,970
2017-09-01T08:40:17.203Z,1085
2017-09-01T08:41:16.794Z,1100
2017-09-01T08:42:17.138Z,1165
2017-09-01T08:43:16.980Z,1245
2017-09-01T08:44:17.534Z,1205
2017-09-01T08:45:17.040Z,1210
2017-09-01T08:46:16.991Z,1705
2017-09-01T08:47:17.000Z,2035
2017-09-01T08:48:17.030Z,1655
2017-09-01T08:49:17.430Z,2030
2017-09-01T08:50:17.462Z,2115
2017-09-01T08:51:17.486Z,1910
2017-09-01T08:52:17.037Z,1560
2017-09-01T08:53:17.717Z,1425
2017-09-01T08:54:17.453Z,1630
2017-09-01T08:55:17.802Z,1235
2017-09-01T08:56:17.842Z,1090
2017-09-01T08:57:17.379Z,1020
2017-09-01T08:58:18.033Z,970
2017-09-01T08:59:18.079Z,975
2017-09-01T09:00:18.115Z,940
2017-09-01T09:01:17.509Z,880
2017-09-01T09:02:18.611Z,800
2017-09-01T09:03:18.535Z,735
2017-09-01T09:04:17.976Z,690
2017-09-01T09:05:18.351Z,675
2017-09-01T09:06:19.009Z,665
2017-09-01T09:07:19.045Z,665
2017-09-01T09:08:19.090Z,695
2017-09-01T09:09:18.505Z,665
2017-09-01T09:10:18.831Z,645
2017-09-01T09:11:19.207Z,645
2017-09-01T09:12:19.241Z,690
2017-09-01T09:13:18.946Z,725
2017-09-01T09:14:19.367Z,725
2017-09-01T09:15:19.364Z,700
2017-09-01T09:16:18.791Z,670
2017-09-01T09:17:19.442Z,650
2017-09-01T09:18:19.818Z,635
2017-09-01T09:19:19.857Z,640
2017-09-01T09:20:19.885Z,640
2017-09-01T09:21:19.936Z,625
2017-09-01T09:22:19.972Z,595
2017-09-01T09:23:19.372Z,565
2017-09-01T09:24:20.357Z,550
2017-09-01T09:25:20.403Z,560
2017-09-01T09:26:20.452Z,570
2017-09-01T09:27:19.560Z,595
2017-09-01T09:28:20.619Z,615
2017-09-01T09:29:20.604Z,655
2017-09-01T09:30:20.339Z,705
2017-09-01T09:31:20.360Z,745
2017-09-01T09:32:21.411Z,785
2017-09-01T09:33:20.445Z,795
2017-09-01T09:34:21.446Z,840
2017-09-01T09:35:21.476Z,870
2017-09-01T09:36:20.944Z,905
2017-09-01T09:37:21.629Z,1285
2017-09-01T09:38:21.687Z,1015
2017-09-01T09:39:22.071Z,945
2017-09-01T09:40:22.454Z,960
2017-09-01T09:41:22.140Z,940
2017-09-01T09:42:22.475Z,1160
2017-09-01T09:43:22.190Z,1085
2017-09-01T09:44:22.549Z,1105
2017-09-01T09:45:22.596Z,1165
2017-09-01T09:46:22.626Z,1095
2017-09-01T09:47:22.684Z,945
2017-09-01T09:48:22.715Z,1030
2017-09-01T09:49:22.452Z,1110
2017-09-01T09:50:22.482Z,1575
2017-09-01T09:51:22.192Z,1120
2017-09-01T09:52:22.227Z,1300
2017-09-01T09:53:23.219Z,1065
2017-09-01T09:54:22.963Z,1215
2017-09-01T09:55:23.373Z,1175
2017-09-01T09:56:23.007Z,1075
2017-09-01T09:57:23.082Z,1005
2017-09-01T09:58:23.090Z,1035
2017-09-01T09:59:23.438Z,1185
2017-09-01T10:00:23.139Z,1055
2017-09-01T10:01:23.822Z,1015
2017-09-01T10:02:23.877Z,935
2017-09-01T10:03:23.893Z,945
2017-09-01T10:04:24.255Z,855
2017-09-01T10:05:23.975Z,825
2017-09-01T10:06:23.698Z,750
2017-09-01T10:07:24.083Z,710
2017-09-01T10:08:25.086Z,700
2017-09-01T10:09:24.471Z,675
2017-09-01T10:10:25.136Z,655
2017-09-01T10:11:24.857Z,635
2017-09-01T10:12:25.196Z,610
2017-09-01T10:13:24.965Z,580
2017-09-01T10:14:25.653Z,545
2017-09-01T10:15:25.979Z,515
2017-09-01T10:16:25.423Z,500
2017-09-01T10:17:25.452Z,480
2017-09-01T10:18:25.805Z,465
2017-09-01T10:19:25.846Z,450
2017-09-01T10:20:25.990Z,430
2017-09-01T10:21:25.304Z,415
2017-09-01T10:22:25.980Z,410
2017-09-01T10:23:26.055Z,400
2017-09-01T10:24:25.754Z,390
2017-09-01T10:25:26.090Z,390
2017-09-01T10:26:25.543Z,395
2017-09-01T10:27:26.197Z,400
2017-09-01T10:28:26.847Z,395
2017-09-01T10:29:26.566Z,405
2017-09-01T10:30:27.372Z,415
2017-09-01T10:31:26.601Z,415
2017-09-01T10:32:27.296Z,415
2017-09-01T10:33:27.019Z,420
2017-09-01T10:34:27.365Z,415
2017-09-01T10:35:27.508Z,405
2017-09-01T10:36:27.835Z,395
2017-09-01T10:37:27.890Z,390
2017-09-01T10:38:28.531Z,385
2017-09-01T10:39:28.222Z,380
2017-09-01T10:40:28.401Z,355
2017-09-01T10:41:28.330Z,330
2017-09-01T10:42:28.381Z,310
2017-09-01T10:43:28.104Z,300
2017-09-01T10:44:29.105Z,300
2017-09-01T10:45:29.276Z,305
2017-09-01T10:46:29.183Z,315
2017-09-01T10:47:28.891Z,315
2017-09-01T10:48:29.260Z,320
2017-09-01T10:49:28.658Z,320
2017-09-01T10:50:29.341Z,320
2017-09-01T10:51:29.354Z,320
2017-09-01T10:52:29.704Z,320
2017-09-01T10:53:29.740Z,315
2017-09-01T10:54:29.763Z,315
2017-09-01T10:55:29.816Z,310
2017-09-01T10:56:30.154Z,300
2017-09-01T10:57:30.196Z,295
2017-09-01T10:58:29.579Z,290
2017-09-01T10:59:29.604Z,285
2017-09-01T11:00:29.687Z,275
2017-09-01T11:01:30.042Z,270
2017-09-01T11:02:30.724Z,265
2017-09-01T11:03:30.772Z,265
2017-09-01T11:04:31.111Z,270
2017-09-01T11:05:31.145Z,275
2017-09-01T11:06:30.868Z,280
2017-09-01T11:07:30.967Z,280
2017-09-01T11:08:30.635Z,285
2017-09-01T11:09:31.647Z,280
2017-09-01T11:10:31.360Z,265
2017-09-01T11:11:31.075Z,260
2017-09-01T11:12:31.115Z,255
2017-09-01T11:13:30.826Z,250
2017-09-01T11:14:31.825Z,250
2017-09-01T11:15:31.872Z,250
2017-09-01T11:16:31.870Z,260
2017-09-01T11:17:31.610Z,265
2017-09-01T11:18:31.965Z,270
2017-09-01T11:19:32.301Z,275
2017-09-01T11:20:32.015Z,285
2017-09-01T11:21:32.668Z,295
2017-09-01T11:22:33.035Z,305
2017-09-01T11:23:33.084Z,315
2017-09-01T11:24:32.799Z,315
2017-09-01T11:25:32.834Z,310
2017-09-01T11:26:33.464Z,305
2017-09-01T11:27:33.515Z,300
2017-09-01T11:28:33.559Z,295
2017-09-01T11:29:33.260Z,295
2017-09-01T11:30:33.312Z,290
2017-09-01T11:31:33.332Z,290
2017-09-01T11:32:33.690Z,285
2017-09-01T11:33:33.419Z,285
2017-09-01T11:34:33.768Z,275
2017-09-01T11:35:33.469Z,270
2017-09-01T11:36:33.790Z,270
2017-09-01T11:37:34.138Z,265
2017-09-01T11:38:34.178Z,270
2017-09-01T11:39:34.213Z,275
2017-09-01T11:40:33.788Z,285
2017-09-01T11:41:34.168Z,290
2017-09-01T11:42:34.801Z,300
2017-09-01T11:43:34.240Z,305
2017-09-01T11:44:34.611Z,310
2017-09-01T11:45:34.354Z,315
2017-09-01T11:46:35.042Z,315
2017-09-01T11:47:34.764Z,320
2017-09-01T11:48:35.442Z,320
2017-09-01T11:49:34.842Z,320
2017-09-01T11:50:35.528Z,320
2017-09-01T11:51:35.868Z,320
2017-09-01T11:52:35.287Z,320
2017-09-01T11:53:36.286Z,315
2017-09-01T11:54:36.315Z,310
2017-09-01T11:55:36.365Z,310
2017-09-01T11:56:36.075Z,310
2017-09-01T11:57:36.415Z,305
2017-09-01T11:58:36.138Z,305
2017-09-01T11:59:36.507Z,300
2017-09-01T12:00:36.520Z,300
2017-09-01T12:01:36.254Z,295
2017-09-01T12:02:36.282Z,290
2017-09-01T12:03:36.643Z,290
2017-09-01T12:04:36.367Z,285
2017-09-01T12:05:36.403Z,280
2017-09-01T12:06:36.442Z,275
2017-09-01T12:07:36.888Z,270
2017-09-01T12:08:36.507Z,270
2017-09-01T12:09:36.505Z,275
2017-09-01T12:10:37.148Z,280
2017-09-01T12:11:36.581Z,285
2017-09-01T12:12:37.571Z,290
2017-09-01T12:13:36.958Z,295
2017-09-01T12:14:37.637Z,300
2017-09-01T12:15:37.975Z,305
2017-09-01T12:16:37.687Z,315
2017-09-01T12:17:38.341Z,315
2017-09-01T12:18:38.066Z,320
2017-09-01T12:19:38.706Z,325
2017-09-01T12:20:38.458Z,330
2017-09-01T12:21:38.794Z,330
2017-09-01T12:22:38.831Z,325
2017-09-01T12:23:38.853Z,320
2017-09-01T12:24:38.253Z,315
2017-09-01T12:25:38.599Z,310
2017-09-01T12:26:39.255Z,300
2017-09-01T12:27:39.606Z,290
2017-09-01T12:28:39.356Z,285
2017-09-01T12:29:39.085Z,275
2017-09-01T12:30:39.775Z,275
2017-09-01T12:31:39.810Z,270
2017-09-01T12:32:40.136Z,270
2017-09-01T12:33:39.575Z,270
2017-09-01T12:34:39.631Z,270
2017-09-01T12:35:40.307Z,270
2017-09-01T12:36:40.636Z,270
2017-09-01T12:37:40.685Z,265
2017-09-01T12:38:40.376Z,260
2017-09-01T12:39:41.546Z,255
2017-09-01T12:40:41.390Z,245
2017-09-01T12:41:41.119Z,245
2017-09-01T12:42:41.776Z,245
2017-09-01T12:43:41.496Z,245
2017-09-01T12:44:41.520Z,250
2017-09-01T12:45:41.557Z,255
2017-09-01T12:46:41.904Z,260
2017-09-01T12:47:41.947Z,260
2017-09-01T12:48:41.367Z,260
2017-09-01T12:49:41.408Z,260
2017-09-01T12:50:42.403Z,250
2017-09-01T12:51:42.429Z,245
2017-09-01T12:52:42.490Z,245
2017-09-01T12:53:42.495Z,245
2017-09-01T12:54:42.246Z,245
2017-09-01T12:55:42.573Z,240
2017-09-01T12:56:42.635Z,240
2017-09-01T12:57:42.647Z,235
2017-09-01T12:58:42.349Z,235
2017-09-01T12:59:42.694Z,230
2017-09-01T13:00:42.715Z,230
2017-09-01T13:01:42.406Z,225
2017-09-01T13:02:42.805Z,220
2017-09-01T13:03:42.503Z,215
2017-09-01T13:04:42.534Z,215
2017-09-01T13:05:43.223Z,215
2017-09-01T13:06:43.564Z,210
2017-09-01T13:07:42.971Z,215
2017-09-01T13:08:43.974Z,215
2017-09-01T13:09:43.996Z,220
2017-09-01T13:10:44.025Z,220
2017-09-01T13:11:43.734Z,220
2017-09-01T13:12:43.864Z,215
2017-09-01T13:13:44.164Z,220
2017-09-01T13:14:44.193Z,215
2017-09-01T13:15:44.215Z,215
2017-09-01T13:16:43.635Z,220
2017-09-01T13:17:43.984Z,225
2017-09-01T13:18:44.387Z,230
2017-09-01T13:19:44.697Z,235
2017-09-01T13:20:44.394Z,235
2017-09-01T13:21:44.409Z,235
2017-09-01T13:22:44.726Z,235
2017-09-01T13:23:45.662Z,240
2017-09-01T13:24:44.485Z,245
2017-09-01T13:25:44.561Z,245
2017-09-01T13:26:44.904Z,245
2017-09-01T13:27:45.893Z,245
2017-09-01T13:28:45.916Z,245
2017-09-01T13:29:44.702Z,245
2017-09-01T13:30:45.675Z,240
2017-09-01T13:31:45.718Z,235
2017-09-01T13:32:45.782Z,230
2017-09-01T13:33:45.896Z,225
2017-09-01T13:34:46.393Z,220
2017-09-01T13:35:46.176Z,220
2017-09-01T13:36:45.582Z,215
2017-09-01T13:37:46.247Z,220
2017-09-01T13:38:46.290Z,225
2017-09-01T13:39:46.828Z,225
2017-09-01T13:40:46.670Z,230
2017-09-01T13:41:46.708Z,225
2017-09-01T13:42:46.136Z,225
2017-09-01T13:43:46.482Z,220
2017-09-01T13:44:47.057Z,215
2017-09-01T13:45:46.947Z,215
2017-09-01T13:46:46.924Z,215
2017-09-01T13:47:46.947Z,210
2017-09-01T13:48:46.705Z,205
2017-09-01T13:49:47.032Z,200
2017-09-01T13:50:46.715Z,195
2017-09-01T13:51:47.096Z,190
2017-09-01T13:52:46.864Z,190
2017-09-01T13:53:47.092Z,185
2017-09-01T13:54:46.582Z,175
2017-09-01T13:55:47.572Z,170
2017-09-01T13:56:47.616Z,165
2017-09-01T13:57:47.015Z,160
2017-09-01T13:58:48.000Z,160
2017-09-01T13:59:48.017Z,165
2017-09-01T14:00:47.729Z,160
2017-09-01T14:01:48.106Z,160
2017-09-01T14:02:48.101Z,160
2017-09-01T14:03:48.438Z,155
2017-09-01T14:04:48.186Z,155